Time;durP1;ratioP1;P1;durP2;ratioP2;P2;SDS_P1;SDS_P2;PMS_P1;PMS_P2;Temp;Humidity;BMP_temperature;BMP_pressure;BME280_temperature;BME280_humidity;BME280_pressure;Samples;Min_cycle;Max_cycle;Signal;HPM_P1;HPM_P2
2023/02/15 00:00:17;;;;;;;40.37;24.43;;;2.10;99.90;;;-141.84;88.06;18580.41;5033191;28;20223;-62
2023/02/15 00:02:46;;;;;;;37.20;24.27;;;2.00;99.90;;;-141.84;88.47;18600.72;5032726;28;20239;-63
2023/02/15 00:05:15;;;;;;;37.50;24.67;;;2.00;99.90;;;-141.84;88.42;18588.53;5032636;28;20256;-63
2023/02/15 00:07:43;;;;;;;37.73;24.33;;;2.00;99.90;;;-141.84;88.40;18590.56;5032671;28;20313;-65
2023/02/15 00:10:12;;;;;;;40.47;25.13;;;2.00;99.90;;;-141.84;88.47;18602.75;5032493;28;20223;-62
2023/02/15 00:12:40;;;;;;;37.63;24.00;;;2.00;99.90;;;-141.84;88.67;18602.75;5032828;28;20213;-63
2023/02/15 00:15:09;;;;;;;40.37;25.40;;;2.00;99.90;;;-141.84;88.75;18549.91;5032743;28;20573;-61
2023/02/15 00:17:37;;;;;;;38.37;24.87;;;1.90;99.90;;;-141.84;88.92;18586.50;5032505;28;20234;-61
2023/02/15 00:20:07;;;;;;;38.73;25.03;;;1.90;99.90;;;-141.84;88.91;18558.03;5032136;28;20230;-62
2023/02/15 00:22:36;;;;;;;38.27;24.23;;;1.90;99.90;;;-141.84;88.74;18556.00;5032186;28;20238;-62
2023/02/15 00:25:05;;;;;;;37.80;25.10;;;2.00;99.90;;;-141.84;88.69;18608.84;5032332;28;20225;-62
2023/02/15 00:27:34;;;;;;;36.23;24.00;;;1.90;99.90;;;-141.84;89.04;18545.84;5032689;28;20206;-62
2023/02/15 00:30:03;;;;;;;38.73;24.70;;;1.80;99.90;;;-141.84;89.18;18590.56;5031876;28;20222;-63
2023/02/15 00:32:31;;;;;;;35.57;24.00;;;1.80;99.90;;;-141.84;89.16;18521.47;5032123;28;20369;-64
2023/02/15 00:35:00;;;;;;;37.63;23.73;;;1.80;99.90;;;-141.84;89.24;18553.97;5031734;28;20233;-63
2023/02/15 00:37:28;;;;;;;37.60;25.63;;;1.80;99.90;;;-141.84;89.46;18584.47;5031697;28;20225;-63
2023/02/15 00:39:57;;;;;;;38.30;24.17;;;1.70;99.90;;;-141.84;89.65;18553.97;5031885;28;20699;-62
2023/02/15 00:42:26;;;;;;;39.83;24.90;;;1.70;99.90;;;-141.84;89.82;18543.81;5032672;28;20210;-63
2023/02/15 00:44:54;;;;;;;39.20;25.40;;;1.70;99.90;;;-141.84;89.79;18568.19;5031628;28;20230;-63
2023/02/15 00:47:22;;;;;;;36.83;25.00;;;1.70;99.90;;;-141.84;89.87;18558.03;5031874;28;20222;-63
2023/02/15 00:49:50;;;;;;;35.97;24.17;;;1.60;99.90;;;-141.84;89.75;18551.94;5031626;28;20235;-64
2023/02/15 00:52:18;;;;;;;37.23;23.67;;;1.70;99.90;;;-141.84;89.77;18556.00;5031773;28;20218;-62
2023/02/15 00:54:46;;;;;;;37.63;24.70;;;1.60;99.90;;;-141.84;89.87;18566.16;5031632;28;20499;-62
2023/02/15 00:57:16;;;;;;;37.97;24.10;;;1.60;99.90;;;-141.84;89.97;18564.13;5032275;28;20228;-63
2023/02/15 00:59:44;;;;;;;37.70;24.93;;;1.60;99.90;;;-141.84;90.05;18558.03;5031279;28;20232;-63
2023/02/15 01:02:12;;;;;;;39.10;24.93;;;1.60;99.90;;;-141.84;89.72;18553.97;5031667;28;20233;-62
2023/02/15 01:04:40;;;;;;;39.77;24.50;;;1.70;99.90;;;-141.84;89.36;18556.00;5031196;28;20248;-63
2023/02/15 01:07:09;;;;;;;40.00;23.90;;;1.70;99.90;;;-141.84;89.17;18525.53;5048801;28;20225;-63
2023/02/15 01:09:37;;;;;;;38.23;25.17;;;1.70;99.90;;;-141.84;89.24;18551.94;5051508;28;20197;-63
2023/02/15 01:12:05;;;;;;;37.00;24.47;;;1.70;99.90;;;-141.84;88.77;18564.13;5051639;28;20209;-62
2023/02/15 01:14:35;;;;;;;37.67;24.23;;;1.70;99.90;;;-141.84;89.03;18572.25;5051040;28;20227;-63
2023/02/15 01:17:03;;;;;;;35.57;23.90;;;1.60;99.90;;;-141.84;89.13;18572.25;5051093;28;20713;-61
2023/02/15 01:19:31;;;;;;;37.50;23.17;;;1.60;99.90;;;-141.84;89.36;18543.81;5050927;28;20233;-63
2023/02/15 01:21:59;;;;;;;33.37;21.93;;;1.60;99.90;;;-141.84;89.56;18525.53;5051093;28;20223;-63
2023/02/15 01:24:27;;;;;;;33.67;23.07;;;1.50;99.90;;;-141.84;89.67;18529.59;5051577;28;20219;-61
2023/02/15 01:26:55;;;;;;;38.97;24.70;;;1.40;99.90;;;-141.84;89.96;18507.25;5051392;28;20237;-63
2023/02/15 01:29:23;;;;;;;37.07;23.47;;;1.40;99.90;;;-141.84;89.94;18564.13;5051115;28;20227;-62
2023/02/15 01:31:53;;;;;;;38.50;23.53;;;1.40;99.90;;;-141.84;89.84;18553.97;5050826;28;20319;-62
2023/02/15 01:34:21;;;;;;;36.40;24.03;;;1.40;99.90;;;-141.84;89.84;18529.59;5050926;28;20229;-62
2023/02/15 01:36:49;;;;;;;41.17;24.53;;;1.30;99.90;;;-141.84;89.99;18513.34;5050561;28;20570;-63
2023/02/15 01:39:17;;;;;;;37.13;23.43;;;1.30;99.90;;;-141.84;90.19;18523.50;5051435;28;20209;-63
2023/02/15 01:41:46;;;;;;;35.63;24.03;;;1.30;99.90;;;-141.84;90.59;18539.75;5050810;28;20717;-62
2023/02/15 01:44:49;;;;;;;35.93;22.57;;;1.30;99.90;;;-141.84;89.91;18535.69;5050772;28;20233;-62
2023/02/15 01:47:27;;;;;;;34.17;22.67;;;1.40;99.90;;;-141.84;89.48;18553.97;5050477;28;20225;-62
2023/02/15 01:50:08;;;;;;;34.53;21.77;;;1.50;99.90;;;-141.84;89.28;18549.91;5050555;28;20225;-62
2023/02/15 01:52:45;;;;;;;31.33;20.57;;;1.50;99.90;;;-141.84;89.27;18519.44;5050526;28;20751;-63
2023/02/15 01:55:14;;;;;;;32.33;21.47;;;1.50;99.90;;;-141.84;89.62;18523.50;5050586;28;20279;-63
2023/02/15 01:57:46;;;;;;;32.03;21.37;;;1.50;99.90;;;-141.84;89.91;18531.63;5050222;28;20201;-61
2023/02/15 02:00:16;;;;;;;31.67;20.83;;;1.50;99.90;;;-141.84;90.21;18547.88;5050621;28;20213;-62
2023/02/15 02:02:50;;;;;;;33.20;21.20;;;1.50;99.90;;;-141.84;90.34;18519.44;5050250;28;20257;-63
2023/02/15 02:05:19;;;;;;;32.87;21.47;;;1.50;99.90;;;-141.84;90.45;18527.56;5049982;28;20256;-63
2023/02/15 02:07:51;;;;;;;30.30;20.03;;;1.50;99.90;;;-141.84;90.55;18519.44;5050092;28;20236;-64
2023/02/15 02:10:23;;;;;;;30.10;19.50;;;1.50;99.90;;;-141.84;90.82;18529.59;5050184;28;20224;-62
2023/02/15 02:12:57;;;;;;;30.43;20.33;;;1.40;99.90;;;-141.84;90.98;18505.22;5050262;28;20192;-62
2023/02/15 02:15:39;;;;;;;32.80;20.77;;;1.40;99.90;;;-141.84;90.92;18480.84;5050504;28;20675;-63
2023/02/15 02:18:25;;;;;;;29.40;19.97;;;1.40;99.90;;;-141.84;91.34;18517.41;5050311;28;20322;-63
2023/02/15 02:21:38;;;;;;;29.70;20.17;;;1.40;99.90;;;-141.84;91.19;18553.97;5049605;28;20779;-63
2023/02/15 02:24:49;;;;;;;30.23;19.80;;;1.40;99.90;;;-141.84;91.35;18519.44;5050297;28;20214;-62
2023/02/15 02:27:31;;;;;;;29.70;19.60;;;1.40;99.90;;;-141.84;91.37;18523.50;5050208;28;20221;-63
2023/02/15 02:30:36;;;;;;;30.93;19.43;;;1.30;99.90;;;-141.84;91.17;18533.66;5049676;28;20299;-63
2023/02/15 02:33:42;;;;;;;26.70;18.97;;;1.40;99.90;;;-141.84;90.94;18501.16;5050166;28;20231;-64
2023/02/15 02:36:23;;;;;;;29.87;20.03;;;1.40;99.90;;;-141.84;90.69;18505.22;5043357;28;20221;-63
2023/02/15 02:39:12;;;;;;;27.13;19.50;;;1.40;99.90;;;-141.84;90.56;18537.72;5049468;28;20233;-62
2023/02/15 02:41:56;;;;;;;29.67;20.73;;;1.40;99.90;;;-141.84;90.30;18509.28;5049730;28;20244;-62
2023/02/15 02:44:32;;;;;;;30.47;20.23;;;1.40;99.90;;;-141.84;89.85;18556.00;5049585;28;20229;-62
2023/02/15 02:47:07;;;;;;;28.57;19.10;;;1.40;99.90;;;-141.84;89.72;18513.34;5049204;28;20231;-63
2023/02/15 02:49:40;;;;;;;28.17;19.20;;;1.40;99.90;;;-141.84;89.89;18497.09;5049334;28;20595;-64
2023/02/15 02:52:39;;;;;;;27.20;19.67;;;1.30;99.90;;;-141.84;90.11;18507.25;5049424;28;20228;-63
2023/02/15 02:55:13;;;;;;;27.00;19.03;;;1.20;99.90;;;-141.84;90.37;18521.47;5049612;28;20240;-63
2023/02/15 02:57:54;;;;;;;28.37;20.20;;;1.20;99.90;;;-141.84;90.58;18497.09;5049549;28;20188;-63
2023/02/15 03:00:26;;;;;;;26.97;18.43;;;1.20;99.90;;;-141.84;90.75;18493.03;5053346;28;20205;-64
2023/02/15 03:03:04;;;;;;;28.13;19.17;;;1.10;99.90;;;-141.84;90.92;18480.84;5053314;28;20601;-62
2023/02/15 03:05:41;;;;;;;28.10;19.30;;;1.10;99.90;;;-141.84;90.76;18507.25;5053556;28;20251;-63
2023/02/15 03:08:11;;;;;;;27.73;19.37;;;1.20;99.90;;;-141.84;90.62;18497.09;5053460;28;20230;-61
2023/02/15 03:10:42;;;;;;;26.03;18.37;;;1.20;99.90;;;-141.84;90.82;18482.88;5053707;28;20228;-63
2023/02/15 03:13:10;;;;;;;25.67;17.90;;;1.10;99.90;;;-141.84;91.25;18493.03;5053499;28;20221;-63
2023/02/15 03:18:36;;;;;;;25.07;18.20;;;1.20;99.90;;;-141.84;90.87;18501.16;5053933;28;20204;-63
2023/02/15 03:21:09;;;;;;;27.77;18.70;;;1.20;99.90;;;-141.84;91.05;18511.31;5053631;28;20614;-62
2023/02/15 03:23:40;;;;;;;25.97;18.27;;;1.30;99.90;;;-141.84;90.75;18523.50;5053243;28;20713;-62
2023/02/15 03:26:10;;;;;;;28.80;17.97;;;1.30;99.90;;;-141.84;90.68;18529.59;5053152;28;20230;-63
2023/02/15 03:28:47;;;;;;;23.37;16.73;;;1.30;99.90;;;-141.84;90.98;18495.06;5053097;28;20225;-63
2023/02/15 03:31:19;;;;;;;25.43;17.60;;;1.30;99.90;;;-141.84;91.17;18525.53;5052958;28;20224;-62
2023/02/15 03:33:55;;;;;;;26.57;18.20;;;1.30;99.90;;;-141.84;90.92;18507.25;5052959;28;20216;-63
2023/02/15 03:36:37;;;;;;;24.00;17.47;;;1.40;99.90;;;-141.84;90.71;18517.41;5053292;28;20600;-63
2023/02/15 03:39:16;;;;;;;24.80;18.07;;;1.40;99.90;;;-141.84;90.65;18509.28;5053401;28;20217;-62
2023/02/15 03:41:55;;;;;;;26.90;16.97;;;1.40;99.90;;;-141.84;90.00;18553.97;5052784;28;20229;-62
2023/02/15 03:44:29;;;;;;;24.60;17.10;;;1.40;99.90;;;-141.84;88.63;18529.59;5052798;28;20639;-64
2023/02/15 03:47:06;;;;;;;25.23;16.87;;;1.50;99.90;;;-141.84;88.36;18501.16;5052727;28;20236;-63
2023/02/15 03:49:45;;;;;;;26.90;17.80;;;1.50;99.90;;;-141.84;87.97;18545.84;5053065;28;20236;-62
2023/02/15 03:52:16;;;;;;;23.43;16.73;;;1.50;99.90;;;-141.84;87.79;18509.28;5052591;28;20221;-62
2023/02/15 03:54:46;;;;;;;24.07;16.67;;;1.50;99.90;;;-141.84;87.56;18539.75;5052808;28;20193;-63
2023/02/15 04:03:27;;;;;;;22.83;16.50;;;1.30;99.90;;;-141.84;89.34;18515.38;5052419;28;20252;-64
2023/02/15 04:05:55;;;;;;;24.13;16.57;;;1.20;99.90;;;-141.84;89.44;18505.22;5052655;28;20280;-63
2023/02/15 04:10:51;;;;;;;26.13;18.03;;;1.20;99.90;;;-141.84;89.57;18503.19;5052177;28;20233;-63
2023/02/15 04:11:12;;;;;;;25.67;18.17;;;1.20;99.90;;;-141.84;89.67;18486.94;5052188;28;20299;-62
2023/02/15 04:13:40;;;;;;;25.13;19.67;;;1.20;99.90;;;-141.84;89.84;18497.09;5052413;28;20228;-63
2023/02/15 04:16:07;;;;;;;30.60;22.13;;;1.10;99.90;;;-141.84;90.02;18495.06;5052193;28;20233;-62
2023/02/15 04:27:02;;;;;;;29.33;22.47;;;1.20;99.90;;;-141.84;88.54;18484.91;5051801;28;20232;-63
2023/02/15 04:29:32;;;;;;;28.33;20.00;;;1.10;99.90;;;-141.84;88.70;18509.28;5051919;28;20229;-63
2023/02/15 04:32:02;;;;;;;27.57;18.77;;;1.00;99.90;;;-141.84;88.70;18511.31;5051883;28;20232;-62
2023/02/15 04:34:30;;;;;;;25.50;17.73;;;1.00;99.90;;;-141.84;87.24;18517.41;5051766;28;20224;-63
2023/02/15 04:36:58;;;;;;;23.77;17.63;;;1.10;99.90;;;-141.84;87.49;18513.34;5051922;28;20221;-63
2023/02/15 04:39:28;;;;;;;24.73;16.90;;;1.10;99.90;;;-141.84;87.62;18507.25;5051819;28;20691;-63
2023/02/15 04:41:56;;;;;;;23.70;16.67;;;1.10;99.90;;;-141.84;86.97;18545.84;5051771;28;20717;-63
2023/02/15 04:44:24;;;;;;;24.27;16.57;;;1.20;99.90;;;-141.84;85.90;18553.97;5051733;28;20237;-62
2023/02/15 04:46:52;;;;;;;25.47;16.93;;;1.30;99.90;;;-141.84;85.66;18574.28;5051556;28;20577;-63
2023/02/15 04:49:20;;;;;;;24.80;16.00;;;1.30;99.90;;;-141.84;85.50;18545.84;5051338;28;20232;-63
2023/02/15 04:51:48;;;;;;;23.00;16.33;;;1.30;99.90;;;-141.84;86.34;18527.56;5051829;28;20201;-63
2023/02/15 04:54:16;;;;;;;23.57;16.13;;;1.30;99.90;;;-141.84;86.45;18517.41;5051631;28;20578;-63
2023/02/15 04:56:46;;;;;;;21.27;15.20;;;1.20;99.90;;;-141.84;87.05;18507.25;5051365;28;20249;-63
2023/02/15 04:59:15;;;;;;;24.00;15.87;;;1.20;99.90;;;-141.84;87.99;18529.59;5051115;28;20760;-63
2023/02/15 05:01:43;;;;;;;22.67;16.07;;;1.10;99.90;;;-141.84;88.54;18497.09;5051004;28;20240;-64
2023/02/15 05:04:11;;;;;;;21.70;15.87;;;1.00;99.90;;;-141.84;88.53;18474.75;5051053;28;20226;-62
2023/02/15 05:06:39;;;;;;;19.70;14.80;;;1.00;99.90;;;-141.84;88.42;18523.50;5051209;28;20673;-62
2023/02/15 05:09:08;;;;;;;20.93;15.07;;;1.00;99.90;;;-141.84;88.71;18517.41;5051593;28;20202;-63
2023/02/15 05:11:36;;;;;;;19.77;14.80;;;1.00;99.90;;;-141.84;89.27;18503.19;5051293;28;20238;-63
2023/02/15 05:14:06;;;;;;;21.90;15.43;;;0.90;99.90;;;-141.84;89.34;18488.97;5050793;28;20580;-62
2023/02/15 05:16:34;;;;;;;20.87;15.90;;;0.90;99.90;;;-141.84;89.29;18497.09;5050814;28;20235;-63
2023/02/15 05:19:03;;;;;;;22.60;16.17;;;0.90;99.90;;;-141.84;89.62;18513.34;5050879;28;20308;-63
2023/02/15 05:21:32;;;;;;;24.00;17.03;;;0.80;99.90;;;-141.84;89.51;18497.09;5050964;28;20236;-62
2023/02/15 05:28:18;;;;;;;22.70;16.30;;;0.90;99.90;;;-141.84;89.61;18499.13;5050752;28;20229;-63
2023/02/15 05:29:35;;;;;;;22.30;15.70;;;0.90;99.90;;;-141.84;89.35;18497.09;5050378;28;20738;-62
2023/02/15 05:32:04;;;;;;;20.63;15.83;;;0.80;99.90;;;-141.84;89.51;18454.44;5050519;28;20221;-63
2023/02/15 05:34:32;;;;;;;23.83;15.70;;;0.80;99.90;;;-141.84;89.42;18531.63;5050339;28;20778;-63
2023/02/15 05:37:00;;;;;;;22.30;15.73;;;0.80;99.90;;;-141.84;89.05;18478.81;5043502;28;20227;-62
2023/02/15 05:39:28;;;;;;;21.77;15.90;;;0.80;99.90;;;-141.84;89.25;18476.78;5032266;28;20581;-62
2023/02/15 05:42:00;;;;;;;21.63;15.30;;;0.70;99.90;;;-141.84;89.21;18484.91;5030394;28;20229;-63
2023/02/15 05:44:28;;;;;;;21.70;15.23;;;0.70;99.90;;;-141.84;89.16;18505.22;5030292;28;20736;-63
2023/02/15 05:46:57;;;;;;;22.93;15.73;;;0.70;99.90;;;-141.84;89.21;18488.97;5030251;28;20226;-62
2023/02/15 05:49:25;;;;;;;20.20;14.93;;;0.70;99.90;;;-141.84;89.23;18491.00;5030420;28;20573;-63
2023/02/15 05:51:54;;;;;;;21.80;15.33;;;0.80;99.90;;;-141.84;88.86;18493.03;5030337;28;20202;-63
2023/02/15 05:54:22;;;;;;;19.93;15.33;;;0.80;99.90;;;-141.84;89.09;18458.50;5030644;28;20213;-63
2023/02/15 05:56:50;;;;;;;21.80;14.70;;;0.80;99.90;;;-141.84;88.34;18505.22;5030302;28;20230;-62
2023/02/15 05:59:18;;;;;;;18.63;13.40;;;0.80;99.90;;;-141.84;88.32;18507.25;5030272;28;20645;-62
2023/02/15 06:01:47;;;;;;;22.53;15.27;;;0.80;99.90;;;-141.84;88.14;18509.28;5030283;28;20230;-62
2023/02/15 06:04:16;;;;;;;20.17;14.03;;;0.80;99.90;;;-141.84;88.11;18491.00;5030154;28;20320;-63
2023/02/15 06:06:44;;;;;;;17.80;13.87;;;0.80;99.90;;;-141.84;88.18;18497.09;5043243;28;20209;-63
2023/02/15 06:09:14;;;;;;;19.37;14.50;;;0.80;99.90;;;-141.84;89.00;18509.28;5050689;28;20213;-63
2023/02/15 06:11:42;;;;;;;19.67;15.10;;;0.60;99.90;;;-141.84;89.11;18462.56;5049943;28;20316;-62
2023/02/15 06:14:10;;;;;;;21.67;13.83;;;0.80;99.90;;;-141.84;88.98;18482.88;5049637;28;20232;-62
2023/02/15 06:16:38;;;;;;;20.47;14.90;;;0.90;99.90;;;-141.84;88.74;18491.00;5049406;28;20232;-62
2023/02/15 06:19:07;;;;;;;17.37;13.33;;;0.90;99.90;;;-141.84;88.88;18499.13;5049987;28;20712;-62
2023/02/15 06:21:36;;;;;;;19.17;14.13;;;0.80;99.90;;;-141.84;88.24;18493.03;5050117;28;20206;-62
2023/02/15 06:24:05;;;;;;;18.80;14.00;;;0.90;99.90;;;-141.84;87.55;18499.13;5049970;28;20214;-64
2023/02/15 06:26:33;;;;;;;19.80;14.27;;;0.90;99.90;;;-141.84;87.28;18517.41;5049572;28;20232;-63
2023/02/15 06:29:01;;;;;;;20.40;14.67;;;0.90;99.90;;;-141.84;87.27;18501.16;5049835;28;20457;-62
2023/02/15 06:31:29;;;;;;;20.70;14.23;;;0.90;99.90;;;-141.84;87.17;18497.09;5049207;28;20225;-63
2023/02/15 06:34:00;;;;;;;20.13;14.53;;;0.90;99.90;;;-141.84;87.44;18515.38;5048869;28;20252;-62
2023/02/15 06:36:29;;;;;;;21.67;13.97;;;0.90;99.90;;;-141.84;87.10;18556.00;5049835;28;20212;-63
2023/02/15 06:38:59;;;;;;;17.40;13.33;;;1.00;99.90;;;-141.84;87.06;18495.06;5049887;28;20225;-62
2023/02/15 06:41:27;;;;;;;21.17;14.10;;;1.00;99.90;;;-141.84;87.12;18513.34;5049342;28;20225;-62
2023/02/15 06:43:55;;;;;;;20.60;14.20;;;1.00;99.90;;;-141.84;86.98;18517.41;5049711;28;20225;-62
2023/02/15 06:46:23;;;;;;;19.33;13.77;;;1.00;99.90;;;-141.84;86.45;18521.47;5049267;28;20216;-64
2023/02/15 06:48:51;;;;;;;22.20;14.00;;;1.10;99.90;;;-141.84;85.80;18515.38;5049695;28;20202;-62
2023/02/15 06:51:19;;;;;;;23.17;14.43;;;1.10;99.90;;;-141.84;85.91;18521.47;5049794;28;20203;-62
2023/02/15 06:53:48;;;;;;;20.47;14.27;;;1.10;99.90;;;-141.84;85.96;18533.66;5049719;28;20239;-62
2023/02/15 06:56:17;;;;;;;20.43;14.27;;;1.10;99.90;;;-141.84;86.28;18497.09;5049451;28;20315;-62
2023/02/15 06:58:45;;;;;;;22.33;14.87;;;1.10;99.90;;;-141.84;86.69;18531.63;5049178;28;20703;-63
2023/02/15 07:01:14;;;;;;;19.17;14.17;;;1.10;99.90;;;-141.84;86.06;18531.63;5049424;28;20221;-63
2023/02/15 07:03:42;;;;;;;19.53;13.43;;;1.10;99.90;;;-141.84;85.58;18509.28;5049376;28;20252;-62
2023/02/15 07:06:11;;;;;;;18.37;13.67;;;1.20;99.90;;;-141.84;86.37;18537.72;5049510;28;20206;-63
2023/02/15 07:08:40;;;;;;;20.63;14.50;;;1.10;99.90;;;-141.84;86.77;18523.50;5049451;28;20229;-62
2023/02/15 07:13:55;;;;;;;19.30;13.77;;;1.10;99.90;;;-141.84;86.55;18539.75;5049080;28;20228;-63
2023/02/15 07:16:23;;;;;;;18.27;13.93;;;1.20;99.90;;;-141.84;85.47;18507.25;5048667;28;20240;-63
2023/02/15 07:18:51;;;;;;;20.63;14.03;;;1.30;99.90;;;-141.84;85.84;18543.81;5048949;28;20747;-62
2023/02/15 07:21:19;;;;;;;19.80;13.20;;;1.40;99.90;;;-141.84;85.04;18549.91;5049331;28;20197;-63
2023/02/15 07:23:47;;;;;;;19.57;12.80;;;1.40;99.90;;;-141.84;83.51;18533.66;5049058;28;20244;-62
2023/02/15 07:26:16;;;;;;;16.07;11.97;;;1.50;99.90;;;-141.84;82.75;18558.03;5048810;28;20725;-62
2023/02/15 07:28:44;;;;;;;17.67;12.07;;;1.60;99.90;;;-141.84;82.88;18558.03;5048944;28;20229;-62
2023/02/15 07:31:13;;;;;;;16.27;11.57;;;1.60;99.90;;;-141.84;83.59;18570.22;5049008;28;20227;-62
2023/02/15 07:33:42;;;;;;;15.10;11.57;;;1.70;99.90;;;-141.84;84.23;18531.63;5048999;28;20197;-61
2023/02/15 07:36:11;;;;;;;16.63;12.60;;;1.70;99.90;;;-141.84;84.55;18558.03;5049082;28;20228;-63
2023/02/15 07:38:42;;;;;;;16.47;12.13;;;1.80;99.90;;;-141.84;83.27;18566.16;5048700;28;20235;-63
2023/02/15 07:41:13;;;;;;;16.20;11.27;;;1.90;99.90;;;-141.84;81.56;18592.59;5048889;28;20602;-63
2023/02/15 07:43:44;;;;;;;14.80;11.87;;;2.00;99.90;;;-141.84;82.48;18578.38;5048900;28;20335;-62
2023/02/15 07:46:17;;;;;;;13.27;10.80;;;2.10;99.90;;;-141.84;83.28;18578.38;5051971;28;20225;-64
2023/02/15 07:48:46;;;;;;;13.63;10.83;;;2.30;99.90;;;-141.84;83.17;18594.63;5044841;28;20194;-60
2023/02/15 07:51:15;;;;;;;14.40;10.47;;;2.40;99.90;;;-141.84;82.14;18588.53;5032218;28;20608;-61
2023/02/15 07:53:44;;;;;;;13.33;10.57;;;2.50;99.90;;;-141.84;80.51;18602.75;5050593;28;20217;-61
2023/02/15 07:56:14;;;;;;;14.77;10.07;;;2.60;99.90;;;-141.84;79.06;18596.66;5052159;28;20229;-61
2023/02/15 07:58:52;;;;;;;13.10;10.13;;;2.60;99.90;;;-141.84;79.51;18637.28;5052262;28;20228;-60
2023/02/15 08:01:25;;;;;;;13.83;10.37;;;2.80;99.90;;;-141.84;79.33;18661.66;5051969;28;20278;-60
2023/02/15 08:03:54;;;;;;;11.30;9.07;;;2.90;99.90;;;-141.84;76.51;18702.28;5051931;28;20205;-62
2023/02/15 08:06:24;;;;;;;11.23;8.93;;;3.10;99.90;;;-141.84;77.05;18651.50;5052415;28;20214;-62
2023/02/15 08:08:52;;;;;;;11.70;9.60;;;3.10;99.90;;;-141.84;75.93;18665.72;5052089;28;20225;-62
2023/02/15 08:11:28;;;;;;;12.60;10.03;;;3.00;99.90;;;-141.84;75.44;18712.47;5051983;28;20230;-62
2023/02/15 08:13:59;;;;;;;12.60;9.87;;;3.00;99.90;;;-141.84;76.17;18692.13;5051964;28;20408;-62
2023/02/15 08:16:33;;;;;;;11.33;8.87;;;3.00;99.90;;;-141.84;76.07;18714.50;5051789;28;20236;-62
2023/02/15 08:19:06;;;;;;;11.27;8.80;;;3.10;99.90;;;-141.84;74.59;18720.59;5051840;28;20727;-61
2023/02/15 08:21:37;;;;;;;14.80;9.17;;;3.20;99.90;;;-141.84;74.32;18753.09;5052095;28;20205;-62
2023/02/15 08:24:07;;;;;;;12.37;9.07;;;3.40;99.90;;;-141.84;74.76;18744.97;5052062;28;20224;-63
2023/02/15 08:26:36;;;;;;;13.67;9.90;;;3.30;99.90;;;-141.84;74.94;18718.56;5050027;28;20595;-64
2023/02/15 08:29:04;;;;;;;12.17;8.47;;;3.40;99.90;;;-141.84;75.17;18728.72;5051920;28;20308;-62
2023/02/15 08:31:36;;;;;;;11.40;8.57;;;3.50;99.90;;;-141.84;75.39;18736.84;5051262;28;20229;-63
2023/02/15 08:34:06;;;;;;;11.53;8.77;;;3.60;99.90;;;-141.84;74.57;18714.50;5051257;28;20228;-63
2023/02/15 08:36:34;;;;;;;17.63;9.50;;;3.70;99.90;;;-141.84;74.30;18749.03;5039852;28;20244;-63
2023/02/15 08:39:06;;;;;;;10.13;8.33;;;3.70;99.90;;;-141.84;73.83;18751.06;5031686;28;20222;-63
2023/02/15 08:41:37;;;;;;;10.43;8.97;;;3.80;99.90;;;-141.84;73.31;18757.16;5031040;28;20228;-62
2023/02/15 08:44:08;;;;;;;10.33;8.10;;;4.00;99.90;;;-141.84;71.89;18834.38;5031168;28;20245;-61
2023/02/15 08:46:41;;;;;;;10.93;8.87;;;4.10;99.90;;;-141.84;72.67;18781.53;5031064;28;20245;-62
2023/02/15 08:49:12;;;;;;;12.40;9.00;;;4.10;99.90;;;-141.84;71.10;18870.94;5031198;28;20228;-62
2023/02/15 08:51:40;;;;;;;11.23;8.47;;;4.10;99.90;;;-141.84;70.99;18854.69;5030855;28;20204;-61
2023/02/15 08:54:12;;;;;;;10.87;8.77;;;4.20;99.90;;;-141.84;71.41;18856.72;5031199;28;20216;-61
2023/02/15 08:56:43;;;;;;;11.17;8.27;;;4.30;99.90;;;-141.84;71.23;18858.75;5030000;28;20239;-62
2023/02/15 08:59:16;;;;;;;11.37;8.70;;;4.40;99.90;;;-141.84;71.20;18836.41;5030820;28;20233;-63
2023/02/15 09:01:48;;;;;;;12.37;9.10;;;4.30;99.90;;;-141.84;70.70;18858.75;5030627;28;20763;-64
2023/02/15 09:04:18;;;;;;;14.03;9.10;;;4.50;99.90;;;-141.84;70.05;18911.56;5030952;28;20237;-62
2023/02/15 09:06:48;;;;;;;12.93;8.67;;;4.60;99.90;;;-141.84;69.82;18903.44;5030908;28;20611;-63
2023/02/15 09:09:18;;;;;;;9.93;7.70;;;4.60;99.90;;;-141.84;69.55;18911.56;5030880;28;20248;-62
2023/02/15 09:11:49;;;;;;;10.50;8.30;;;4.70;99.90;;;-141.84;69.78;18895.31;5030536;28;20233;-61
2023/02/15 09:14:24;;;;;;;9.73;7.80;;;4.70;99.90;;;-141.84;69.87;18881.09;5034315;28;20282;-62
2023/02/15 09:16:54;;;;;;;9.23;7.53;;;4.80;99.90;;;-141.84;68.93;18893.28;5031523;28;20249;-63
2023/02/15 09:19:25;;;;;;;10.63;7.60;;;4.90;99.90;;;-141.84;69.31;18879.06;5030342;28;20317;-61
2023/02/15 09:21:54;;;;;;;9.53;8.00;;;5.00;99.90;;;-141.84;69.33;18909.53;5029940;28;20186;-62
2023/02/15 09:24:22;;;;;;;9.57;7.43;;;5.00;99.90;;;-141.84;69.39;18903.44;5030938;28;20214;-62
2023/02/15 09:26:51;;;;;;;8.50;6.90;;;5.20;99.90;;;-141.84;69.10;18938.00;5035460;28;20324;-62
2023/02/15 09:29:22;;;;;;;8.97;7.00;;;5.30;99.90;;;-141.84;67.02;18990.81;5030290;28;20225;-61
2023/02/15 09:31:54;;;;;;;8.77;6.83;;;5.60;99.90;;;-141.84;66.82;18976.59;5029835;28;20275;-62
2023/02/15 09:34:24;;;;;;;9.77;7.10;;;5.70;99.90;;;-141.84;66.30;18982.69;5030336;28;20324;-62
2023/02/15 09:36:53;;;;;;;9.67;7.17;;;5.80;99.90;;;-141.84;66.44;18982.69;5030131;28;20212;-63
2023/02/15 09:39:24;;;;;;;10.30;7.80;;;5.80;99.90;;;-141.84;66.25;18998.94;5030782;28;20252;-64
2023/02/15 09:42:40;;;;;;;7.93;6.87;;;5.90;99.90;;;-141.84;65.96;19013.16;5029949;28;20218;-63
2023/02/15 09:45:27;;;;;;;10.33;6.47;;;6.00;99.90;;;-141.84;64.33;19076.16;5029841;28;20313;-61
2023/02/15 09:48:39;;;;;;;10.57;7.60;;;6.20;99.90;;;-141.84;65.72;19023.34;5029846;28;20234;-62
2023/02/15 09:51:49;;;;;;;7.97;6.83;;;6.20;99.90;;;-141.84;65.00;19066.00;5017094;28;20321;-63
2023/02/15 09:54:51;;;;;;;7.33;6.40;;;6.30;99.90;;;-141.84;64.92;19082.25;5030336;28;20221;-64
2023/02/15 09:57:34;;;;;;;8.23;6.37;;;6.20;99.90;;;-141.84;64.86;19055.84;5030335;28;20552;-62
2023/02/15 10:00:20;;;;;;;8.50;6.70;;;6.30;99.90;;;-141.84;64.46;19082.25;5029309;28;20222;-63
2023/02/15 10:03:20;;;;;;;7.97;6.67;;;6.40;99.90;;;-141.84;64.72;19088.34;5029890;28;20226;-63
2023/02/15 10:06:24;;;;;;;8.73;6.87;;;6.50;99.90;;;-141.84;63.87;19124.94;5029390;28;20234;-65
2023/02/15 10:09:26;;;;;;;9.40;7.23;;;6.60;99.90;;;-141.84;64.27;19110.72;5028773;28;20229;-63
2023/02/15 10:12:20;;;;;;;7.43;6.63;;;6.60;99.90;;;-141.84;63.87;19139.16;5013149;28;20230;-62
2023/02/15 10:15:29;;;;;;;8.13;6.93;;;6.70;99.90;;;-141.84;63.23;19155.41;5029122;28;20234;-64
2023/02/15 10:18:20;;;;;;;11.17;6.93;;;6.80;99.90;;;-141.84;62.75;19163.53;5009484;28;20745;-62
2023/02/15 10:21:02;;;;;;;8.30;6.73;;;7.00;99.90;;;-141.84;63.53;19147.28;5029338;28;20256;-63
2023/02/15 10:23:59;;;;;;;8.13;6.90;;;6.90;99.90;;;-141.84;63.21;19171.66;5029011;28;20325;-62
2023/02/15 10:26:38;;;;;;;9.07;7.00;;;7.10;99.90;;;-141.84;62.45;19175.72;5029111;28;20780;-61
2023/02/15 10:29:17;;;;;;;7.50;6.40;;;7.20;99.90;;;-141.84;62.37;19177.75;5030776;28;20813;-62
2023/02/15 10:31:52;;;;;;;8.13;7.13;;;7.20;99.90;;;-141.84;62.85;19124.94;5031236;28;20224;-63
2023/02/15 10:34:35;;;;;;;9.30;6.63;;;7.20;99.90;;;-141.84;62.49;19187.91;5029351;28;20304;-64
2023/02/15 10:37:35;;;;;;;10.03;7.40;;;7.40;99.90;;;-141.84;61.90;19214.34;5023222;28;20225;-65
2023/02/15 10:40:15;;;;;;;8.30;6.87;;;7.50;99.90;;;-141.84;61.08;19236.69;5033796;28;20229;-64
2023/02/15 10:43:15;;;;;;;8.37;7.07;;;7.60;99.90;;;-141.84;61.03;19248.88;5029453;28;20190;-64
2023/02/15 10:46:01;;;;;;;7.37;6.50;;;7.70;99.90;;;-141.84;61.05;19273.28;5049021;28;20563;-64
2023/02/15 10:49:22;;;;;;;8.13;6.80;;;7.90;99.90;;;-141.84;59.42;19303.75;5049762;28;20293;-68
2023/02/15 10:52:29;;;;;;;8.67;6.73;;;8.10;99.90;;;-141.84;59.08;19297.66;5048786;28;20925;-69